Time;durP1;ratioP1;P1;durP2;ratioP2;P2;SDS_P1;SDS_P2;PMS_P1;PMS_P2;Temp;Humidity;BMP_temperature;BMP_pressure;BME280_temperature;BME280_humidity;BME280_pressure;Samples;Min_cycle;Max_cycle;Signal;HPM_P1;HPM_P2
2023/10/12 00:02:04;;;;;;;4.97;0.90;;;14.00;99.90;;;;;;5011863;28;20072;-69
2023/10/12 00:04:43;;;;;;;2.13;0.88;;;14.00;99.90;;;;;;5002836;28;20481;-69
2023/10/12 00:07:15;;;;;;;2.70;0.85;;;14.00;99.90;;;;;;5004332;28;20123;-70
2023/10/12 00:09:48;;;;;;;2.85;0.82;;;14.10;99.90;;;;;;5003662;28;20026;-69
2023/10/12 00:12:24;;;;;;;3.33;0.90;;;14.00;99.90;;;;;;5008238;28;20124;-70
2023/10/12 00:14:56;;;;;;;3.78;1.15;;;14.00;99.90;;;;;;5001028;28;20021;-69
2023/10/12 00:17:23;;;;;;;2.38;1.20;;;14.00;99.90;;;;;;5007692;28;20034;-70
2023/10/12 00:19:51;;;;;;;1.55;0.85;;;14.00;99.90;;;;;;5008277;28;20164;-69
2023/10/12 00:22:16;;;;;;;4.00;1.60;;;14.00;99.90;;;;;;5007582;28;20036;-69
2023/10/12 00:24:43;;;;;;;4.53;1.65;;;14.00;99.90;;;;;;5005611;28;20383;-69
2023/10/12 00:27:10;;;;;;;3.85;1.98;;;13.90;99.90;;;;;;5006230;28;20363;-71
2023/10/12 00:29:39;;;;;;;4.60;1.95;;;13.90;99.90;;;;;;4996371;28;20042;-69
2023/10/12 00:32:08;;;;;;;4.25;1.83;;;13.90;99.90;;;;;;5008446;28;20481;-69
2023/10/12 00:34:36;;;;;;;4.05;1.95;;;13.90;99.90;;;;;;5006113;28;20061;-70
2023/10/12 00:37:03;;;;;;;4.25;1.95;;;13.80;99.90;;;;;;5012423;28;20065;-70
2023/10/12 00:39:44;;;;;;;3.70;1.92;;;13.80;99.90;;;;;;5004936;28;20034;-70
2023/10/12 00:42:11;;;;;;;;;;;13.80;99.90;;;;;;5007837;28;20041;-69
2023/10/12 00:44:40;;;;;;;5.72;1.02;;;13.70;99.90;;;;;;4997902;28;19917;-68
2023/10/12 00:47:13;;;;;;;3.17;0.90;;;13.50;99.90;;;;;;5006075;28;20030;-69
2023/10/12 00:49:46;;;;;;;9.50;1.45;;;13.20;99.60;;;;;;5010258;28;20029;-69
2023/10/12 00:52:22;;;;;;;5.68;1.10;;;13.20;99.50;;;;;;5006397;28;20026;-70
2023/10/12 00:54:55;;;;;;;10.40;1.15;;;13.10;99.40;;;;;;5001638;28;20125;-71
2023/10/12 00:57:22;;;;;;;4.97;1.02;;;13.00;99.30;;;;;;5023507;28;20387;-69
2023/10/12 00:59:50;;;;;;;7.90;1.08;;;13.00;99.10;;;;;;5001189;28;20497;-72
2023/10/12 01:02:17;;;;;;;6.07;1.55;;;13.00;98.90;;;;;;5018857;28;20429;-72
2023/10/12 01:04:52;;;;;;;8.75;1.50;;;13.00;99.10;;;;;;5001344;28;20030;-69
2023/10/12 01:07:19;;;;;;;6.00;1.05;;;12.90;99.20;;;;;;4997475;28;20113;-70
2023/10/12 01:09:48;;;;;;;6.97;1.27;;;12.90;99.20;;;;;;5003992;28;20045;-69
2023/10/12 01:12:14;;;;;;;7.25;1.05;;;12.80;99.20;;;;;;5009153;28;20061;-70
2023/10/12 01:14:45;;;;;;;8.07;1.45;;;12.80;99.30;;;;;;4998733;28;20057;-69
2023/10/12 01:17:16;;;;;;;;;;;12.80;99.40;;;;;;4999988;28;20033;-71
2023/10/12 01:19:45;;;;;;;6.93;1.13;;;12.80;99.50;;;;;;5004258;28;20278;-70
2023/10/12 01:22:14;;;;;;;10.32;1.42;;;12.80;99.60;;;;;;5003885;28;20030;-70
2023/10/12 01:27:21;;;;;;;6.85;1.55;;;12.70;99.60;;;;;;4999452;28;20168;-68
2023/10/12 01:29:53;;;;;;;11.52;1.88;;;12.70;99.60;;;;;;4999077;28;20100;-70
2023/10/12 01:35:02;;;;;;;8.95;1.98;;;12.70;99.80;;;;;;5005218;28;20073;-69
2023/10/12 01:37:28;;;;;;;11.50;1.52;;;12.70;99.80;;;;;;5007034;28;20057;-69
2023/10/12 01:42:50;;;;;;;13.00;1.70;;;12.70;99.90;;;;;;5001097;28;20042;-69
2023/10/12 01:48:07;;;;;;;9.82;1.33;;;12.70;99.90;;;;;;5006823;28;20088;-69
2023/10/12 01:50:33;;;;;;;13.57;1.70;;;12.60;99.90;;;;;;5007347;28;20034;-69
2023/10/12 01:53:00;;;;;;;8.13;1.38;;;12.70;99.90;;;;;;5004988;28;20117;-69
2023/10/12 01:55:30;;;;;;;6.63;1.33;;;12.70;99.90;;;;;;5003469;28;20022;-70
2023/10/12 01:57:56;;;;;;;8.20;1.40;;;12.70;99.90;;;;;;5004186;28;20026;-69
2023/10/12 02:00:38;;;;;;;6.80;1.33;;;12.70;99.90;;;;;;4998236;28;20038;-69
2023/10/12 02:03:18;;;;;;;5.15;1.20;;;12.70;99.90;;;;;;5005424;28;20556;-70
2023/10/12 02:05:50;;;;;;;7.15;1.38;;;12.60;99.90;;;;;;5006953;28;20013;-68
2023/10/12 02:08:17;;;;;;;6.38;1.33;;;12.60;99.90;;;;;;5007669;28;20068;-69
2023/10/12 02:10:54;;;;;;;8.57;1.15;;;12.60;99.90;;;;;;5001330;28;20034;-70
2023/10/12 02:13:21;;;;;;;5.05;1.40;;;12.60;99.90;;;;;;5001549;28;20030;-72
2023/10/12 02:15:49;;;;;;;8.48;1.15;;;12.60;99.90;;;;;;4999406;28;20100;-69
2023/10/12 02:18:19;;;;;;;8.45;1.25;;;12.60;99.90;;;;;;5006981;28;20029;-69
2023/10/12 02:21:00;;;;;;;4.93;1.20;;;12.60;99.90;;;;;;5005089;28;20034;-69
2023/10/12 02:23:36;;;;;;;6.93;1.38;;;12.60;99.90;;;;;;5000801;28;20112;-69
2023/10/12 02:26:27;;;;;;;5.18;1.27;;;12.50;99.90;;;;;;5008627;28;20069;-68
2023/10/12 02:28:54;;;;;;;9.98;1.33;;;12.50;99.90;;;;;;5005910;28;20022;-70
2023/10/12 02:31:20;;;;;;;10.32;1.98;;;12.30;99.90;;;;;;4999611;28;20546;-69
2023/10/12 02:33:46;;;;;;;8.93;1.92;;;12.30;99.90;;;;;;5006763;28;20045;-69
2023/10/12 02:36:13;;;;;;;13.57;1.50;;;12.30;99.90;;;;;;5003329;28;20026;-69
2023/10/12 02:38:41;;;;;;;8.20;1.63;;;12.30;99.90;;;;;;5003794;28;20036;-68
2023/10/12 02:41:12;;;;;;;7.50;1.60;;;12.30;99.90;;;;;;4999239;28;20038;-72
2023/10/12 02:43:40;;;;;;;7.60;1.35;;;12.30;99.90;;;;;;5023890;28;20076;-69
2023/10/12 02:46:12;;;;;;;8.65;1.70;;;12.30;99.90;;;;;;5009453;28;20099;-69
2023/10/12 02:48:38;;;;;;;9.40;1.98;;;12.30;99.90;;;;;;4998307;28;20040;-69
2023/10/12 02:51:06;;;;;;;7.20;1.67;;;12.30;99.90;;;;;;5011477;28;20021;-69
2023/10/12 02:53:34;;;;;;;10.13;1.58;;;12.30;99.90;;;;;;5004102;28;20030;-70
2023/10/12 02:56:01;;;;;;;6.03;1.17;;;12.30;99.90;;;;;;5011883;28;20479;-68
2023/10/12 02:58:27;;;;;;;10.32;2.05;;;12.30;99.90;;;;;;5007112;28;20481;-69
2023/10/12 03:00:56;;;;;;;10.38;1.67;;;12.30;99.90;;;;;;5003674;28;20058;-68
2023/10/12 03:03:26;;;;;;;9.60;1.67;;;12.30;99.90;;;;;;5007086;28;20030;-69
2023/10/12 03:05:54;;;;;;;6.72;1.25;;;12.30;99.90;;;;;;5009551;28;20017;-69
2023/10/12 03:08:21;;;;;;;9.15;1.35;;;12.20;99.90;;;;;;5013667;28;20028;-69
2023/10/12 03:13:35;;;;;;;5.50;1.35;;;12.20;99.90;;;;;;4999135;28;20485;-69
2023/10/12 03:18:46;;;;;;;15.20;1.77;;;12.10;99.90;;;;;;5000853;28;20037;-69
2023/10/12 03:21:11;;;;;;;6.18;1.40;;;12.10;99.90;;;;;;5007130;28;20038;-68
2023/10/12 03:23:41;;;;;;;10.85;1.52;;;12.10;99.90;;;;;;5002918;28;20034;-69
2023/10/12 03:28:50;;;;;;;7.90;2.45;;;12.10;99.90;;;;;;5004577;28;20411;-69
2023/10/12 03:31:34;;;;;;;9.10;1.58;;;12.00;99.90;;;;;;4999338;28;20033;-69
2023/10/12 03:34:00;;;;;;;11.98;2.17;;;12.00;99.90;;;;;;5008438;28;20049;-68
2023/10/12 03:36:32;;;;;;;8.55;1.98;;;12.10;99.90;;;;;;5005282;28;20065;-69
2023/10/12 03:47:15;;;;;;;9.18;2.25;;;12.00;99.90;;;;;;5004675;28;20068;-68
2023/10/12 03:50:09;;;;;;;11.07;2.10;;;12.10;99.90;;;;;;5010809;28;20034;-68
2023/10/12 03:52:40;;;;;;;9.32;2.33;;;12.10;99.90;;;;;;5004509;28;20038;-70
2023/10/12 04:02:42;;;;;;;13.95;3.10;;;12.20;99.90;;;;;;5009952;28;20036;-68
2023/10/12 04:05:21;;;;;;;11.77;3.00;;;12.20;99.90;;;;;;5011047;28;20056;-68
2023/10/12 04:08:17;;;;;;;12.35;3.25;;;12.30;99.90;;;;;;5004459;28;20076;-69
2023/10/12 04:18:48;;;;;;;13.52;4.07;;;12.20;99.90;;;;;;5005536;28;20370;-69
2023/10/12 04:21:17;;;;;;;11.40;3.58;;;12.10;99.90;;;;;;5006407;28;20040;-72
2023/10/12 04:23:49;;;;;;;13.90;3.88;;;12.10;99.90;;;;;;5009858;28;20018;-68
2023/10/12 04:28:53;;;;;;;15.52;4.28;;;12.10;99.90;;;;;;4999557;28;20029;-66
2023/10/12 04:31:33;;;;;;;14.95;3.40;;;12.10;99.90;;;;;;5005069;28;20018;-68
2023/10/12 04:34:08;;;;;;;14.37;3.40;;;12.10;99.90;;;;;;5005364;28;20402;-67
2023/10/12 04:36:44;;;;;;;16.73;3.58;;;12.10;99.90;;;;;;5010370;28;20277;-67
2023/10/12 04:39:27;;;;;;;13.38;3.90;;;12.10;99.90;;;;;;5011008;28;20036;-67
2023/10/12 04:42:04;;;;;;;19.48;4.25;;;12.00;99.90;;;;;;5009493;28;20050;-67
2023/10/12 04:47:06;;;;;;;13.68;4.30;;;12.00;99.90;;;;;;4999741;28;20057;-66
2023/10/12 04:54:31;;;;;;;18.63;4.57;;;12.00;99.90;;;;;;5000237;28;20096;-67
2023/10/12 04:59:43;;;;;;;15.30;3.45;;;;;;;;;;4996580;28;20037;-68
2023/10/12 05:09:38;;;;;;;17.23;3.90;;;11.80;99.90;;;;;;5001171;28;20036;-67
2023/10/12 05:12:04;;;;;;;14.70;3.42;;;11.80;99.90;;;;;;5001521;28;20425;-68
2023/10/12 05:14:30;;;;;;;14.40;2.70;;;11.80;99.90;;;;;;4993289;28;20379;-67
2023/10/12 05:16:56;;;;;;;22.50;2.80;;;11.80;99.90;;;;;;5006062;28;20025;-66
2023/10/12 05:19:21;;;;;;;14.90;3.38;;;11.80;99.90;;;;;;4995372;28;20391;-67
2023/10/12 05:21:47;;;;;;;18.20;3.42;;;11.70;99.90;;;;;;5000568;28;20034;-67
2023/10/12 05:24:12;;;;;;;17.90;3.22;;;11.70;99.90;;;;;;5001407;28;20038;-68
2023/10/12 05:26:38;;;;;;;8.90;3.00;;;11.60;99.90;;;;;;5004248;28;20049;-70
2023/10/12 05:32:13;;;;;;;8.27;2.75;;;11.60;99.90;;;;;;4997265;28;20045;-67
2023/10/12 05:37:16;;;;;;;12.85;2.72;;;11.50;99.90;;;;;;5004754;28;20065;-67
2023/10/12 05:39:51;;;;;;;11.15;2.80;;;11.60;99.90;;;;;;5000797;28;20044;-66
2023/10/12 05:42:20;;;;;;;20.35;3.22;;;11.50;99.90;;;;;;5003701;28;20030;-67
2023/10/12 05:44:50;;;;;;;10.80;2.58;;;11.50;99.90;;;;;;5003664;28;20129;-67
2023/10/12 05:47:18;;;;;;;9.65;2.85;;;11.50;99.90;;;;;;5003198;28;20644;-70
2023/10/12 05:49:45;;;;;;;14.45;2.58;;;11.50;99.90;;;;;;5008212;28;20033;-67
2023/10/12 05:52:11;;;;;;;8.70;2.33;;;11.50;99.90;;;;;;5000782;28;20459;-67
2023/10/12 05:54:40;;;;;;;7.25;2.80;;;11.50;99.90;;;;;;5002516;28;20045;-66
2023/10/12 05:57:19;;;;;;;13.00;3.63;;;11.50;99.90;;;;;;5002128;28;20523;-67
2023/10/12 05:59:45;;;;;;;16.80;3.20;;;11.50;99.90;;;;;;4999213;28;20033;-68
2023/10/12 06:02:11;;;;;;;12.13;3.67;;;11.40;99.90;;;;;;5005173;28;20042;-66
2023/10/12 06:04:37;;;;;;;16.83;3.45;;;11.40;99.90;;;;;;5009906;28;20492;-66
2023/10/12 06:07:04;;;;;;;12.43;3.13;;;11.50;99.90;;;;;;5003294;28;20036;-66
2023/10/12 06:09:36;;;;;;;11.52;2.95;;;11.40;99.90;;;;;;5007025;28;20490;-67
2023/10/12 06:12:06;;;;;;;10.90;3.15;;;11.40;99.90;;;;;;5000443;28;20089;-68
2023/10/12 06:14:32;;;;;;;16.80;2.83;;;11.40;99.90;;;;;;5000210;28;20040;-67
2023/10/12 06:17:02;;;;;;;12.98;3.13;;;11.40;99.90;;;;;;4998276;28;20501;-67
2023/10/12 06:19:29;;;;;;;12.23;2.60;;;11.40;99.90;;;;;;5007587;28;20030;-67
2023/10/12 06:22:19;;;;;;;9.55;2.75;;;11.40;99.90;;;;;;5000326;28;20033;-67
2023/10/12 06:24:48;;;;;;;18.67;3.65;;;11.40;99.90;;;;;;5004659;28;20124;-67
2023/10/12 06:29:54;;;;;;;17.55;3.35;;;11.40;99.90;;;;;;5007591;28;20077;-69
2023/10/12 06:32:31;;;;;;;9.30;2.60;;;11.40;99.90;;;;;;5004344;28;20026;-67
2023/10/12 06:45:51;;;;;;;10.77;2.20;;;11.40;99.90;;;;;;4999179;28;20060;-66
2023/10/12 06:51:02;;;;;;;13.32;2.65;;;11.40;99.90;;;;;;4995955;28;20061;-67
2023/10/12 06:53:33;;;;;;;11.07;2.60;;;11.40;99.90;;;;;;4993640;28;20463;-67
2023/10/12 06:58:41;;;;;;;11.38;2.08;;;11.40;99.90;;;;;;4999017;28;20466;-66
2023/10/12 07:01:52;;;;;;;18.27;2.40;;;11.40;99.90;;;;;;4995689;28;20486;-68
2023/10/12 07:03:55;;;;;;;12.63;2.28;;;11.50;99.90;;;;;;5009154;28;20046;-66
2023/10/12 07:06:20;;;;;;;11.40;2.05;;;11.50;99.90;;;;;;5007714;28;20065;-67
2023/10/12 07:08:46;;;;;;;9.40;2.60;;;11.50;99.90;;;;;;4998218;28;20037;-67
2023/10/12 07:11:13;;;;;;;11.55;2.67;;;11.40;99.90;;;;;;5002093;28;20364;-67
2023/10/12 07:13:42;;;;;;;12.20;2.95;;;11.50;99.90;;;;;;5001474;28;20030;-71
2023/10/12 07:16:08;;;;;;;15.05;2.58;;;11.50;99.90;;;;;;5004340;28;20037;-67
2023/10/12 07:18:35;;;;;;;8.02;2.15;;;11.40;99.90;;;;;;4997963;28;20040;-68
2023/10/12 07:21:00;;;;;;;10.95;2.70;;;11.40;99.90;;;;;;5004196;28;20037;-68
2023/10/12 07:23:35;;;;;;;15.30;2.67;;;11.40;99.90;;;;;;5005882;28;20430;-68
2023/10/12 07:26:06;;;;;;;11.13;2.28;;;11.40;99.90;;;;;;5010551;28;20046;-69
2023/10/12 07:28:39;;;;;;;10.10;2.20;;;11.30;99.90;;;;;;4998459;28;20053;-68
2023/10/12 07:34:19;;;;;;;10.43;2.38;;;11.30;99.90;;;;;;5005226;28;20194;-67
2023/10/12 07:36:44;;;;;;;10.48;2.00;;;11.30;99.90;;;;;;5006169;28;20049;-67
2023/10/12 07:39:28;;;;;;;6.10;2.42;;;11.20;99.90;;;;;;5005267;28;20474;-68
2023/10/12 07:42:00;;;;;;;12.95;2.58;;;11.20;99.90;;;;;;5005173;28;20398;-67
2023/10/12 07:44:39;;;;;;;12.75;2.78;;;11.30;99.90;;;;;;5002383;28;20030;-68
2023/10/12 07:47:14;;;;;;;15.88;2.58;;;11.30;99.90;;;;;;5008689;28;20038;-68
2023/10/12 07:49:48;;;;;;;10.75;2.10;;;11.30;99.90;;;;;;5008017;28;20382;-67
2023/10/12 07:54:57;;;;;;;14.23;2.65;;;11.40;99.90;;;;;;5008907;28;20401;-67
2023/10/12 07:57:22;;;;;;;12.55;1.85;;;11.40;99.90;;;;;;5005299;28;20034;-67
2023/10/12 08:02:32;;;;;;;15.18;3.03;;;11.80;99.90;;;;;;5005710;28;20164;-66
2023/10/12 08:05:05;;;;;;;16.48;3.17;;;11.90;99.90;;;;;;5007404;28;20022;-67
2023/10/12 08:07:55;;;;;;;15.02;3.10;;;12.00;99.90;;;;;;5002858;28;20180;-67
2023/10/12 08:10:17;;;;;;;16.92;2.83;;;12.00;99.90;;;;;;5009800;28;20083;-67
2023/10/12 08:12:45;;;;;;;16.80;2.90;;;12.30;99.90;;;;;;5000907;28;20029;-67
2023/10/12 08:15:12;;;;;;;16.50;3.30;;;12.30;99.90;;;;;;4995322;28;20030;-67
2023/10/12 08:17:39;;;;;;;12.52;3.55;;;12.30;99.90;;;;;;5004434;28;20029;-67
2023/10/12 08:22:54;;;;;;;19.90;3.00;;;12.40;99.90;;;;;;4999266;28;20084;-67
2023/10/12 08:25:27;;;;;;;14.30;2.58;;;12.60;99.60;;;;;;5011299;28;20060;-66
2023/10/12 08:27:53;;;;;;;14.50;2.97;;;12.70;99.60;;;;;;5003580;28;20048;-67
2023/10/12 08:30:48;;;;;;;14.55;2.80;;;12.60;99.30;;;;;;4998339;28;20038;-66
2023/10/12 08:33:14;;;;;;;17.15;3.03;;;12.70;98.80;;;;;;5000615;28;20501;-67
2023/10/12 08:36:23;;;;;;;14.02;3.15;;;12.90;98.60;;;;;;5008300;28;20794;-66
2023/10/12 08:39:08;;;;;;;12.48;2.40;;;12.90;98.30;;;;;;5000774;28;20491;-67
2023/10/12 08:43:48;;;;;;;11.90;2.20;;;13.20;98.00;;;;;;4995876;28;20541;-67
2023/10/12 08:46:41;;;;;;;9.90;2.20;;;13.10;97.00;;;;;;4998879;28;20030;-66
2023/10/12 08:49:33;;;;;;;8.55;2.17;;;13.30;97.20;;;;;;5010352;28;20021;-66
2023/10/12 08:52:04;;;;;;;14.80;2.35;;;13.50;95.70;;;;;;5001474;28;20158;-68
2023/10/12 08:54:37;;;;;;;6.88;1.85;;;13.60;95.60;;;;;;5007918;28;20549;-67
2023/10/12 08:57:16;;;;;;;10.55;2.58;;;13.80;95.70;;;;;;5010283;28;20022;-69
2023/10/12 08:59:47;;;;;;;13.15;1.92;;;13.90;95.00;;;;;;5005599;28;20790;-69
2023/10/12 09:02:19;;;;;;;8.73;1.90;;;13.90;93.90;;;;;;5006155;28;20276;-66
2023/10/12 09:04:51;;;;;;;6.82;1.88;;;14.00;94.00;;;;;;5007578;28;20026;-68
2023/10/12 09:07:19;;;;;;;8.40;1.92;;;14.10;94.10;;;;;;5006609;28;20080;-67
2023/10/12 09:09:49;;;;;;;9.70;1.52;;;14.10;92.20;;;;;;5008631;28;20030;-67
2023/10/12 09:12:19;;;;;;;9.70;1.40;;;14.40;93.80;;;;;;5008940;28;20033;-67
2023/10/12 09:14:45;;;;;;;5.10;1.08;;;14.30;91.90;;;;;;5007611;28;20029;-67
2023/10/12 09:17:26;;;;;;;7.35;1.63;;;14.50;92.00;;;;;;5006972;28;20494;-67
2023/10/12 09:20:26;;;;;;;11.63;1.63;;;14.70;92.90;;;;;;5002138;28;20030;-67
2023/10/12 09:22:46;;;;;;;7.40;1.65;;;14.70;91.00;;;;;;5004190;28;20042;-67
2023/10/12 09:25:26;;;;;;;5.60;1.30;;;14.80;91.30;;;;;;5008852;28;20516;-67
2023/10/12 09:27:55;;;;;;;6.85;1.20;;;14.80;88.70;;;;;;5004900;28;20065;-67
2023/10/12 09:30:25;;;;;;;9.18;1.30;;;15.10;89.00;;;;;;5005167;28;20474;-66
2023/10/12 09:32:57;;;;;;;8.70;1.23;;;15.00;86.00;;;;;;5008561;28;20032;-67
2023/10/12 09:35:33;;;;;;;8.90;1.42;;;15.30;89.10;;;;;;5005654;28;20022;-67
2023/10/12 09:38:01;;;;;;;5.30;0.93;;;15.40;86.60;;;;;;5007149;28;20027;-68
2023/10/12 09:40:35;;;;;;;8.13;1.02;;;15.50;85.40;;;;;;5004641;28;20100;-68
2023/10/12 09:43:06;;;;;;;5.57;1.00;;;15.40;83.60;;;;;;5003407;28;20073;-68
2023/10/12 09:45:44;;;;;;;7.47;1.02;;;15.30;84.70;;;;;;5003040;28;20080;-67
2023/10/12 09:48:19;;;;;;;7.72;1.30;;;15.50;85.90;;;;;;5000260;28;20053;-67
2023/10/12 09:50:48;;;;;;;11.60;1.42;;;15.40;84.00;;;;;;5005753;28;20032;-67
2023/10/12 09:53:26;;;;;;;9.57;1.30;;;15.40;82.90;;;;;;4997980;28;20112;-68
2023/10/12 09:56:03;;;;;;;7.90;1.15;;;15.20;82.80;;;;;;4999096;28;20030;-68
2023/10/12 09:58:33;;;;;;;5.88;1.30;;;15.40;86.10;;;;;;4996174;28;20033;-68
2023/10/12 10:01:01;;;;;;;8.85;1.33;;;15.20;86.10;;;;;;4995299;28;20421;-67
2023/10/12 10:03:35;;;;;;;8.52;1.50;;;15.20;84.30;;;;;;5008596;28;20455;-67
2023/10/12 10:06:11;;;;;;;5.15;1.35;;;15.10;82.50;;;;;;5000593;28;20077;-67
2023/10/12 10:08:47;;;;;;;5.80;1.15;;;15.10;83.60;;;;;;5009836;28;20026;-68
2023/10/12 10:11:14;;;;;;;8.98;1.30;;;15.30;83.30;;;;;;5008929;28;20033;-67
2023/10/12 10:13:47;;;;;;;5.03;1.20;;;15.00;83.50;;;;;;4999431;28;20052;-67
2023/10/12 10:16:15;;;;;;;6.95;1.25;;;15.00;83.70;;;;;;5001484;28;20053;-68
2023/10/12 10:18:56;;;;;;;6.50;1.08;;;14.70;84.90;;;;;;5001665;28;20054;-68
2023/10/12 10:21:22;;;;;;;5.75;0.93;;;14.70;84.60;;;;;;5004627;28;20034;-69
2023/10/12 10:23:52;;;;;;;7.38;1.35;;;14.50;83.60;;;;;;5002817;28;20021;-67
2023/10/12 10:26:23;;;;;;;7.35;1.17;;;14.50;86.50;;;;;;5001239;28;20072;-67
2023/10/12 10:28:55;;;;;;;3.88;1.05;;;14.50;85.40;;;;;;4997908;28;20109;-67
2023/10/12 10:31:28;;;;;;;7.57;0.93;;;14.40;83.60;;;;;;4992796;28;20038;-67
2023/10/12 10:33:57;;;;;;;3.53;0.75;;;14.40;83.70;;;;;;5007561;28;20021;-67
2023/10/12 10:36:26;;;;;;;5.00;0.82;;;14.40;83.60;;;;;;5005245;28;20125;-67
2023/10/12 10:41:23;;;;;;;10.25;1.63;;;14.30;82.40;;;;;;5008702;28;20053;-69
2023/10/12 10:43:51;;;;;;;7.80;1.35;;;14.40;83.60;;;;;;5003735;28;20029;-70
2023/10/12 10:46:17;;;;;;;5.38;0.93;;;14.40;83.10;;;;;;5003119;28;20034;-68
2023/10/12 10:48:49;;;;;;;4.90;0.82;;;14.50;80.70;;;;;;4996697;28;20030;-68
2023/10/12 10:51:19;;;;;;;5.25;1.00;;;14.50;82.30;;;;;;5008798;28;20100;-68
2023/10/12 10:53:52;;;;;;;9.00;1.00;;;14.50;82.40;;;;;;4998656;28;20038;-67
2023/10/12 10:56:38;;;;;;;6.38;1.13;;;14.60;81.40;;;;;;5002749;28;20026;-67
2023/10/12 10:59:11;;;;;;;5.20;1.02;;;14.70;81.80;;;;;;5007685;28;20507;-68
2023/10/12 11:01:40;;;;;;;7.82;1.02;;;14.90;79.80;;;;;;4998996;28;20052;-67
2023/10/12 11:04:17;;;;;;;8.32;1.10;;;14.90;79.10;;;;;;4999431;28;20156;-68
2023/10/12 11:06:43;;;;;;;4.18;0.73;;;15.00;81.50;;;;;;4998914;28;20038;-70
2023/10/12 11:09:13;;;;;;;7.07;1.10;;;15.00;78.80;;;;;;5004350;28;20042;-70
2023/10/12 11:11:44;;;;;;;9.73;1.17;;;15.10;79.50;;;;;;5007517;28;20470;-68
2023/10/12 11:14:12;;;;;;;6.90;1.05;;;15.40;78.90;;;;;;5000569;28;20382;-70
2023/10/12 11:16:38;;;;;;;5.32;0.65;;;15.50;79.80;;;;;;4999341;28;20069;-68
2023/10/12 11:19:09;;;;;;;6.22;0.93;;;15.60;76.50;;;;;;5012913;28;20044;-69
2023/10/12 11:21:35;;;;;;;6.30;1.08;;;15.60;75.80;;;;;;5004623;28;20497;-68
2023/10/12 11:24:02;;;;;;;6.57;1.05;;;15.80;76.00;;;;;;5007371;28;20040;-70
2023/10/12 11:26:39;;;;;;;5.50;1.17;;;15.90;72.60;;;;;;5005804;28;20042;-68
2023/10/12 11:29:06;;;;;;;8.60;0.95;;;15.90;70.40;;;;;;5000946;28;20379;-69
2023/10/12 11:31:36;;;;;;;9.32;1.17;;;15.90;69.10;;;;;;5008723;28;20034;-69
2023/10/12 11:34:07;;;;;;;7.18;0.93;;;16.10;74.20;;;;;;5004834;28;20511;-69
2023/10/12 11:36:33;;;;;;;3.28;0.88;;;16.20;73.00;;;;;;5011574;28;20033;-68
2023/10/12 11:39:04;;;;;;;6.88;1.10;;;16.10;72.50;;;;;;5005390;28;20473;-68
2023/10/12 11:41:30;;;;;;;8.60;1.00;;;16.10;72.80;;;;;;5005728;28;20025;-68
2023/10/12 11:44:05;;;;;;;7.00;1.13;;;16.10;74.50;;;;;;5003270;28;20394;-68
2023/10/12 11:46:43;;;;;;;6.50;1.13;;;16.50;75.20;;;;;;5004151;28;20374;-68
2023/10/12 11:49:10;;;;;;;6.05;1.13;;;16.50;70.50;;;;;;5006204;28;20026;-68
2023/10/12 11:51:53;;;;;;;8.43;1.55;;;16.70;70.40;;;;;;5003386;28;20177;-68
2023/10/12 11:54:22;;;;;;;7.75;1.15;;;16.80;71.40;;;;;;5005893;28;20084;-68
2023/10/12 11:56:51;;;;;;;6.07;1.33;;;16.80;71.00;;;;;;5003245;28;20026;-69
2023/10/12 11:59:26;;;;;;;6.55;1.27;;;16.70;69.30;;;;;;5007316;28;20057;-68
2023/10/12 12:01:55;;;;;;;4.95;1.13;;;16.50;69.70;;;;;;5003053;28;20030;-68
2023/10/12 12:04:39;;;;;;;4.47;1.00;;;16.40;70.30;;;;;;5004193;28;20176;-68
2023/10/12 12:07:06;;;;;;;6.35;1.02;;;16.00;72.20;;;;;;5003583;28;20026;-68
2023/10/12 12:09:32;;;;;;;8.45;1.40;;;15.80;73.20;;;;;;4998447;28;20041;-68
2023/10/12 12:11:58;;;;;;;2.80;0.93;;;15.60;72.40;;;;;;5005083;28;20026;-69
2023/10/12 12:14:23;;;;;;;7.57;1.35;;;15.60;74.60;;;;;;4998567;28;20072;-67
2023/10/12 12:16:49;;;;;;;5.22;1.17;;;15.60;74.20;;;;;;4999524;28;20034;-69
2023/10/12 12:19:19;;;;;;;6.40;1.20;;;15.90;73.70;;;;;;5002697;28;20038;-69
2023/10/12 12:21:46;;;;;;;5.88;1.13;;;16.20;71.10;;;;;;5003423;28;20117;-68
2023/10/12 12:24:45;;;;;;;6.10;1.05;;;16.70;70.50;;;;;;5007779;28;20037;-72
2023/10/12 12:27:22;;;;;;;5.88;0.90;;;17.30;67.10;;;;;;5001060;28;20046;-68
2023/10/12 12:29:48;;;;;;;6.80;1.10;;;16.90;68.60;;;;;;4996978;28;20714;-70
2023/10/12 12:32:14;;;;;;;6.25;0.90;;;17.00;68.80;;;;;;5000125;28;20450;-68
2023/10/12 12:34:47;;;;;;;9.05;1.38;;;17.30;66.60;;;;;;5010945;28;20104;-67
2023/10/12 12:37:16;;;;;;;6.95;1.05;;;17.20;67.40;;;;;;5007518;28;20030;-69
2023/10/12 12:39:42;;;;;;;5.35;1.38;;;17.80;64.20;;;;;;5008165;28;20034;-68
2023/10/12 12:42:11;;;;;;;4.38;1.02;;;18.10;64.30;;;;;;5007566;28;20502;-69
2023/10/12 12:44:39;;;;;;;4.07;0.73;;;18.50;63.10;;;;;;4999638;28;20040;-68
2023/10/12 12:47:06;;;;;;;5.00;1.08;;;18.50;59.10;;;;;;5006047;28;20030;-69
2023/10/12 12:49:32;;;;;;;8.23;1.45;;;18.50;56.30;;;;;;5005243;28;20030;-68
2023/10/12 12:51:58;;;;;;;5.07;1.02;;;18.90;59.90;;;;;;5002869;28;20026;-68
2023/10/12 12:54:24;;;;;;;6.68;1.13;;;18.70;59.20;;;;;;5002387;28;20084;-68
2023/10/12 12:56:53;;;;;;;3.40;1.00;;;19.10;55.90;;;;;;5002334;28;20037;-68
2023/10/12 12:59:23;;;;;;;2.72;0.80;;;19.40;54.40;;;;;;4997971;28;20502;-69
2023/10/12 13:01:53;;;;;;;6.35;1.02;;;19.10;52.50;;;;;;4999556;28;20375;-68
2023/10/12 13:04:19;;;;;;;6.47;0.70;;;19.00;57.20;;;;;;4997245;28;20026;-70
2023/10/12 13:06:44;;;;;;;4.88;1.27;;;19.50;55.60;;;;;;5003765;28;20041;-68
2023/10/12 13:09:28;;;;;;;5.65;1.08;;;19.70;54.70;;;;;;4998190;28;20577;-68
2023/10/12 13:11:55;;;;;;;3.85;0.95;;;19.90;56.20;;;;;;5003827;28;20030;-70
2023/10/12 13:14:20;;;;;;;7.28;1.05;;;19.70;55.80;;;;;;4996579;28;20121;-68
2023/10/12 13:16:46;;;;;;;3.58;1.05;;;20.30;51.60;;;;;;5010007;28;20113;-70
2023/10/12 13:19:11;;;;;;;4.00;0.80;;;20.30;52.50;;;;;;5001149;28;20089;-70
2023/10/12 13:21:41;;;;;;;3.38;0.80;;;20.40;52.20;;;;;;5001834;28;20037;-68
2023/10/12 13:24:08;;;;;;;4.90;0.98;;;20.20;50.00;;;;;;5007562;28;21446;-69
2023/10/12 13:26:33;;;;;;;6.35;1.17;;;19.70;51.80;;;;;;5006033;28;20073;-69
2023/10/12 13:29:01;;;;;;;5.15;0.73;;;19.50;52.00;;;;;;5002389;28;20090;-69
2023/10/12 13:31:28;;;;;;;3.15;0.70;;;19.90;51.40;;;;;;5002569;28;20041;-68
2023/10/12 13:33:53;;;;;;;6.85;0.88;;;19.90;51.80;;;;;;5003484;28;20522;-69
2023/10/12 13:36:20;;;;;;;4.68;0.80;;;20.20;49.60;;;;;;5010672;28;20036;-68
2023/10/12 13:38:46;;;;;;;3.30;0.60;;;20.10;51.10;;;;;;5006757;28;20037;-69
2023/10/12 13:41:12;;;;;;;5.70;0.70;;;20.50;49.20;;;;;;5006817;28;20045;-68
2023/10/12 13:43:37;;;;;;;4.05;1.20;;;20.50;50.60;;;;;;5001778;28;20386;-68
2023/10/12 13:46:11;;;;;;;3.47;0.80;;;20.20;49.80;;;;;;5006340;28;20022;-69
2023/10/12 13:48:40;;;;;;;3.65;0.80;;;20.60;50.60;;;;;;5007601;28;20451;-70
2023/10/12 13:51:17;;;;;;;3.73;0.83;;;20.80;52.70;;;;;;5008063;28;20486;-68
2023/10/12 13:53:45;;;;;;;7.13;1.08;;;20.90;49.60;;;;;;4999642;28;20482;-68
2023/10/12 13:56:12;;;;;;;7.88;1.08;;;20.80;47.00;;;;;;5005077;28;20026;-68
2023/10/12 13:58:39;;;;;;;4.82;1.02;;;21.00;47.70;;;;;;5003828;28;20034;-69
2023/10/12 14:01:13;;;;;;;5.95;0.80;;;20.80;46.20;;;;;;5002654;28;20500;-70
2023/10/12 14:03:41;;;;;;;6.80;1.00;;;20.90;52.00;;;;;;5002320;28;20482;-68
2023/10/12 14:06:07;;;;;;;3.35;0.93;;;21.40;55.20;;;;;;4996408;28;20588;-71
2023/10/12 14:08:35;;;;;;;4.18;0.98;;;21.20;45.90;;;;;;5009370;28;20065;-68
2023/10/12 14:11:04;;;;;;;3.97;0.85;;;20.90;44.80;;;;;;5004283;28;20061;-69
2023/10/12 14:13:31;;;;;;;3.63;0.70;;;20.70;47.90;;;;;;5003114;28;20030;-70
2023/10/12 14:15:57;;;;;;;3.83;0.98;;;20.20;49.00;;;;;;5005366;28;20030;-68
2023/10/12 14:18:23;;;;;;;9.90;1.38;;;19.80;48.70;;;;;;5008900;28;20059;-69
2023/10/12 14:20:51;;;;;;;5.63;0.90;;;19.20;49.40;;;;;;5007623;28;20148;-68
2023/10/12 14:23:17;;;;;;;4.07;0.80;;;18.40;53.20;;;;;;5009088;28;20084;-69
2023/10/12 14:25:47;;;;;;;7.38;0.88;;;18.00;51.00;;;;;;5003643;28;20042;-71
2023/10/12 14:28:17;;;;;;;4.25;1.08;;;17.50;56.80;;;;;;5008690;28;20086;-70
2023/10/12 14:30:47;;;;;;;4.70;0.80;;;17.30;56.30;;;;;;5006507;28;20034;-68
2023/10/12 14:33:15;;;;;;;3.45;0.73;;;17.10;58.40;;;;;;5010799;28;20354;-70
2023/10/12 14:35:42;;;;;;;2.33;0.70;;;16.90;60.20;;;;;;5007050;28;20044;-68
2023/10/12 14:38:13;;;;;;;3.05;0.75;;;16.90;63.90;;;;;;5006873;28;20053;-67
2023/10/12 14:40:42;;;;;;;3.65;0.80;;;16.60;62.90;;;;;;5000214;28;20038;-67
2023/10/12 14:43:12;;;;;;;4.88;0.68;;;16.70;65.90;;;;;;5027606;28;20030;-67
2023/10/12 14:45:48;;;;;;;4.63;0.77;;;16.80;61.80;;;;;;5001593;28;20029;-68
2023/10/12 14:48:16;;;;;;;4.95;0.70;;;16.80;62.10;;;;;;5006940;28;20030;-69